Sebastopol, California
Current Conditions -  °F | °C
As of 5:53 AM on Saturday 25 Oct 2014 (Local Time) from KSTS Reporting Station
Light Rain Light Rain  
Wind Chill: 58°   Ceiling: 1400
Heat Index: 58°   Visibility: 10mi
Dew Point: 56°   Wind: 8mph
Humidity: 93%   Direction: 150°SSE
Pressure: 29.89"   Gusts: NA
Location:  38.4°N, 122.82°W
Report Text: KSTS 251253Z AUTO 15007KT 10SM -RA OVC014 14/13 A2989 RMK AO2 SLP116 P0001 T01440133
Loading
Personal Weather Stations






























Interactive Weather Map
Tropical Storm Tracking
New forecast layout! Learn more

10-Day Weather Forecast

Advertisements
Track Severe Weather on mobile